sensor_id;sensor_type;location;lat;lon;timestamp;P1;durP1;ratioP1;P2;durP2;ratioP2
483;SDS011;228;48.922;12.198;2023-02-25T00:01:24;1.20;;;1.10;;
483;SDS011;228;48.922;12.198;2023-02-25T00:03:53;1.83;;;1.57;;
483;SDS011;228;48.922;12.198;2023-02-25T00:06:20;1.60;;;1.30;;
483;SDS011;228;48.922;12.198;2023-02-25T00:08:47;1.50;;;1.37;;
483;SDS011;228;48.922;12.198;2023-02-25T00:11:15;1.50;;;1.40;;
483;SDS011;228;48.922;12.198;2023-02-25T00:13:43;1.90;;;1.70;;
483;SDS011;228;48.922;12.198;2023-02-25T00:16:10;2.13;;;1.40;;
483;SDS011;228;48.922;12.198;2023-02-25T00:18:38;1.53;;;1.43;;
483;SDS011;228;48.922;12.198;2023-02-25T00:21:08;1.50;;;1.20;;
483;SDS011;228;48.922;12.198;2023-02-25T00:23:40;1.73;;;1.60;;
483;SDS011;228;48.922;12.198;2023-02-25T00:26:11;2.73;;;1.43;;
483;SDS011;228;48.922;12.198;2023-02-25T00:28:38;2.37;;;1.37;;
483;SDS011;228;48.922;12.198;2023-02-25T00:31:09;1.70;;;1.43;;
483;SDS011;228;48.922;12.198;2023-02-25T00:33:39;1.70;;;1.50;;
483;SDS011;228;48.922;12.198;2023-02-25T00:36:11;1.50;;;1.40;;
483;SDS011;228;48.922;12.198;2023-02-25T00:38:43;1.40;;;1.30;;
483;SDS011;228;48.922;12.198;2023-02-25T00:41:14;2.23;;;1.53;;
483;SDS011;228;48.922;12.198;2023-02-25T00:43:46;2.57;;;1.60;;
483;SDS011;228;48.922;12.198;2023-02-25T00:46:15;1.70;;;1.60;;
483;SDS011;228;48.922;12.198;2023-02-25T00:48:41;1.87;;;1.60;;
483;SDS011;228;48.922;12.198;2023-02-25T00:51:12;2.73;;;1.80;;
483;SDS011;228;48.922;12.198;2023-02-25T00:53:42;3.30;;;1.87;;
483;SDS011;228;48.922;12.198;2023-02-25T00:56:09;2.47;;;1.77;;
483;SDS011;228;48.922;12.198;2023-02-25T00:58:42;2.40;;;1.70;;
483;SDS011;228;48.922;12.198;2023-02-25T01:01:31;2.03;;;1.83;;
483;SDS011;228;48.922;12.198;2023-02-25T01:04:02;3.33;;;1.83;;
483;SDS011;228;48.922;12.198;2023-02-25T01:06:30;1.73;;;1.37;;
483;SDS011;228;48.922;12.198;2023-02-25T01:08:58;2.80;;;1.77;;
483;SDS011;228;48.922;12.198;2023-02-25T01:11:25;1.93;;;1.60;;
483;SDS011;228;48.922;12.198;2023-02-25T01:13:57;3.57;;;1.83;;
483;SDS011;228;48.922;12.198;2023-02-25T01:16:30;4.17;;;2.17;;
483;SDS011;228;48.922;12.198;2023-02-25T01:19:00;2.57;;;2.00;;
483;SDS011;228;48.922;12.198;2023-02-25T01:21:30;4.17;;;2.00;;
483;SDS011;228;48.922;12.198;2023-02-25T01:24:11;2.63;;;2.13;;
483;SDS011;228;48.922;12.198;2023-02-25T01:26:47;3.00;;;2.30;;
483;SDS011;228;48.922;12.198;2023-02-25T01:29:17;2.93;;;2.20;;
483;SDS011;228;48.922;12.198;2023-02-25T01:32:05;3.60;;;2.37;;
483;SDS011;228;48.922;12.198;2023-02-25T01:34:35;2.53;;;2.23;;
483;SDS011;228;48.922;12.198;2023-02-25T01:37:01;3.50;;;2.70;;
483;SDS011;228;48.922;12.198;2023-02-25T01:39:28;4.47;;;3.37;;
483;SDS011;228;48.922;12.198;2023-02-25T01:41:57;3.90;;;2.60;;
483;SDS011;228;48.922;12.198;2023-02-25T01:44:30;4.63;;;2.70;;
483;SDS011;228;48.922;12.198;2023-02-25T01:46:59;4.17;;;2.90;;
483;SDS011;228;48.922;12.198;2023-02-25T01:54:40;4.63;;;2.90;;
483;SDS011;228;48.922;12.198;2023-02-25T01:57:09;5.60;;;3.30;;
483;SDS011;228;48.922;12.198;2023-02-25T01:59:38;5.53;;;3.07;;
483;SDS011;228;48.922;12.198;2023-02-25T02:02:07;6.00;;;4.03;;
483;SDS011;228;48.922;12.198;2023-02-25T02:04:34;3.90;;;2.93;;
483;SDS011;228;48.922;12.198;2023-02-25T02:07:02;3.50;;;2.63;;
483;SDS011;228;48.922;12.198;2023-02-25T02:09:28;5.90;;;3.67;;
483;SDS011;228;48.922;12.198;2023-02-25T02:11:56;5.70;;;3.13;;
483;SDS011;228;48.922;12.198;2023-02-25T02:14:31;3.33;;;2.53;;
483;SDS011;228;48.922;12.198;2023-02-25T02:33:58;4.47;;;3.20;;
483;SDS011;228;48.922;12.198;2023-02-25T02:37:05;5.93;;;3.40;;
483;SDS011;228;48.922;12.198;2023-02-25T02:40:04;5.47;;;3.10;;
483;SDS011;228;48.922;12.198;2023-02-25T02:43:19;4.67;;;3.07;;
483;SDS011;228;48.922;12.198;2023-02-25T02:48:43;5.37;;;3.00;;
483;SDS011;228;48.922;12.198;2023-02-25T02:51:14;4.10;;;2.60;;
483;SDS011;228;48.922;12.198;2023-02-25T02:53:54;5.00;;;3.07;;
483;SDS011;228;48.922;12.198;2023-02-25T02:56:23;4.37;;;2.73;;
483;SDS011;228;48.922;12.198;2023-02-25T02:58:56;3.63;;;2.40;;
483;SDS011;228;48.922;12.198;2023-02-25T03:01:33;4.03;;;2.40;;
483;SDS011;228;48.922;12.198;2023-02-25T03:04:05;4.57;;;2.47;;
483;SDS011;228;48.922;12.198;2023-02-25T03:06:39;3.33;;;2.70;;
483;SDS011;228;48.922;12.198;2023-02-25T03:09:12;3.50;;;2.30;;
483;SDS011;228;48.922;12.198;2023-02-25T03:11:58;3.33;;;2.47;;
483;SDS011;228;48.922;12.198;2023-02-25T03:14:24;5.10;;;2.23;;
483;SDS011;228;48.922;12.198;2023-02-25T03:16:56;5.27;;;2.30;;
483;SDS011;228;48.922;12.198;2023-02-25T03:19:31;3.53;;;2.23;;
483;SDS011;228;48.922;12.198;2023-02-25T03:24:42;2.83;;;2.10;;
483;SDS011;228;48.922;12.198;2023-02-25T03:27:21;3.10;;;2.33;;
483;SDS011;228;48.922;12.198;2023-02-25T03:30:04;2.93;;;2.53;;
483;SDS011;228;48.922;12.198;2023-02-25T03:32:38;4.17;;;2.30;;
483;SDS011;228;48.922;12.198;2023-02-25T03:35:10;3.27;;;2.50;;
483;SDS011;228;48.922;12.198;2023-02-25T03:37:39;2.73;;;1.80;;
483;SDS011;228;48.922;12.198;2023-02-25T03:40:10;3.77;;;2.40;;
483;SDS011;228;48.922;12.198;2023-02-25T03:42:44;3.97;;;2.37;;
483;SDS011;228;48.922;12.198;2023-02-25T03:45:19;2.53;;;2.10;;
483;SDS011;228;48.922;12.198;2023-02-25T03:47:47;2.37;;;1.93;;
483;SDS011;228;48.922;12.198;2023-02-25T03:50:23;2.37;;;2.00;;
483;SDS011;228;48.922;12.198;2023-02-25T03:52:59;4.83;;;2.27;;
483;SDS011;228;48.922;12.198;2023-02-25T03:55:45;3.13;;;2.20;;
483;SDS011;228;48.922;12.198;2023-02-25T03:58:12;4.27;;;2.53;;
483;SDS011;228;48.922;12.198;2023-02-25T04:00:38;5.90;;;2.80;;
483;SDS011;228;48.922;12.198;2023-02-25T04:03:08;3.77;;;2.23;;
483;SDS011;228;48.922;12.198;2023-02-25T04:05:34;4.23;;;2.40;;
483;SDS011;228;48.922;12.198;2023-02-25T04:08:02;6.00;;;2.40;;
483;SDS011;228;48.922;12.198;2023-02-25T04:10:32;3.43;;;1.97;;
483;SDS011;228;48.922;12.198;2023-02-25T04:12:58;4.97;;;2.50;;
483;SDS011;228;48.922;12.198;2023-02-25T04:15:24;3.70;;;2.20;;
483;SDS011;228;48.922;12.198;2023-02-25T04:17:51;3.83;;;2.07;;
483;SDS011;228;48.922;12.198;2023-02-25T04:20:18;3.67;;;2.00;;
483;SDS011;228;48.922;12.198;2023-02-25T04:22:45;3.00;;;1.90;;
483;SDS011;228;48.922;12.198;2023-02-25T04:25:10;4.73;;;2.50;;
483;SDS011;228;48.922;12.198;2023-02-25T04:27:37;3.73;;;2.17;;
483;SDS011;228;48.922;12.198;2023-02-25T04:30:03;7.10;;;2.30;;
483;SDS011;228;48.922;12.198;2023-02-25T04:32:29;4.63;;;1.80;;
483;SDS011;228;48.922;12.198;2023-02-25T04:34:55;2.70;;;2.03;;
483;SDS011;228;48.922;12.198;2023-02-25T04:37:27;4.20;;;2.27;;
483;SDS011;228;48.922;12.198;2023-02-25T04:39:54;3.53;;;2.53;;
483;SDS011;228;48.922;12.198;2023-02-25T04:42:20;3.27;;;2.20;;
483;SDS011;228;48.922;12.198;2023-02-25T04:44:46;3.80;;;2.20;;
483;SDS011;228;48.922;12.198;2023-02-25T04:47:12;5.77;;;2.83;;
483;SDS011;228;48.922;12.198;2023-02-25T04:49:38;3.37;;;2.20;;
483;SDS011;228;48.922;12.198;2023-02-25T04:52:12;5.13;;;1.97;;
483;SDS011;228;48.922;12.198;2023-02-25T04:54:39;4.40;;;2.17;;
483;SDS011;228;48.922;12.198;2023-02-25T04:57:06;4.47;;;2.50;;
483;SDS011;228;48.922;12.198;2023-02-25T04:59:32;3.17;;;2.17;;
483;SDS011;228;48.922;12.198;2023-02-25T05:01:58;4.50;;;2.20;;
483;SDS011;228;48.922;12.198;2023-02-25T05:04:25;5.00;;;1.90;;
483;SDS011;228;48.922;12.198;2023-02-25T05:06:51;3.80;;;2.10;;
483;SDS011;228;48.922;12.198;2023-02-25T05:09:17;2.60;;;1.90;;
483;SDS011;228;48.922;12.198;2023-02-25T05:11:44;2.17;;;1.80;;
483;SDS011;228;48.922;12.198;2023-02-25T05:14:10;2.10;;;1.90;;
483;SDS011;228;48.922;12.198;2023-02-25T05:16:37;3.67;;;1.97;;
483;SDS011;228;48.922;12.198;2023-02-25T05:19:03;1.90;;;1.70;;
483;SDS011;228;48.922;12.198;2023-02-25T05:21:29;1.93;;;1.53;;
483;SDS011;228;48.922;12.198;2023-02-25T05:23:55;4.70;;;2.40;;
483;SDS011;228;48.922;12.198;2023-02-25T05:26:22;3.53;;;1.80;;
483;SDS011;228;48.922;12.198;2023-02-25T05:28:53;5.47;;;2.07;;
483;SDS011;228;48.922;12.198;2023-02-25T05:31:21;2.63;;;1.57;;
483;SDS011;228;48.922;12.198;2023-02-25T05:33:49;1.50;;;1.40;;
483;SDS011;228;48.922;12.198;2023-02-25T05:36:15;4.17;;;2.13;;
483;SDS011;228;48.922;12.198;2023-02-25T05:38:42;3.53;;;1.80;;
483;SDS011;228;48.922;12.198;2023-02-25T05:41:09;4.47;;;1.80;;
483;SDS011;228;48.922;12.198;2023-02-25T05:43:37;6.53;;;2.23;;
483;SDS011;228;48.922;12.198;2023-02-25T05:46:04;3.37;;;1.90;;
483;SDS011;228;48.922;12.198;2023-02-25T05:48:36;2.70;;;1.80;;
483;SDS011;228;48.922;12.198;2023-02-25T05:51:08;3.43;;;2.00;;
483;SDS011;228;48.922;12.198;2023-02-25T05:53:37;2.63;;;2.00;;
483;SDS011;228;48.922;12.198;2023-02-25T05:56:07;5.50;;;2.60;;
483;SDS011;228;48.922;12.198;2023-02-25T05:58:37;6.63;;;2.30;;
483;SDS011;228;48.922;12.198;2023-02-25T06:01:08;4.07;;;1.80;;
483;SDS011;228;48.922;12.198;2023-02-25T06:03:38;2.70;;;1.87;;
483;SDS011;228;48.922;12.198;2023-02-25T06:06:05;5.80;;;2.33;;
483;SDS011;228;48.922;12.198;2023-02-25T06:08:34;4.17;;;2.00;;
483;SDS011;228;48.922;12.198;2023-02-25T06:11:00;4.57;;;2.40;;
483;SDS011;228;48.922;12.198;2023-02-25T06:13:27;4.47;;;2.30;;
483;SDS011;228;48.922;12.198;2023-02-25T06:15:53;3.90;;;1.97;;
483;SDS011;228;48.922;12.198;2023-02-25T06:18:20;5.83;;;2.47;;
483;SDS011;228;48.922;12.198;2023-02-25T06:20:46;3.80;;;1.77;;
483;SDS011;228;48.922;12.198;2023-02-25T06:23:12;3.17;;;2.07;;
483;SDS011;228;48.922;12.198;2023-02-25T06:25:38;4.13;;;2.27;;
483;SDS011;228;48.922;12.198;2023-02-25T06:28:04;5.10;;;2.30;;
483;SDS011;228;48.922;12.198;2023-02-25T06:30:30;4.70;;;2.07;;
483;SDS011;228;48.922;12.198;2023-02-25T06:32:56;3.80;;;2.60;;
483;SDS011;228;48.922;12.198;2023-02-25T06:35:23;2.50;;;1.90;;
483;SDS011;228;48.922;12.198;2023-02-25T06:37:53;3.87;;;2.10;;
483;SDS011;228;48.922;12.198;2023-02-25T06:40:21;4.93;;;2.17;;
483;SDS011;228;48.922;12.198;2023-02-25T06:42:47;5.63;;;2.97;;
483;SDS011;228;48.922;12.198;2023-02-25T06:45:13;4.33;;;2.20;;
483;SDS011;228;48.922;12.198;2023-02-25T06:47:40;6.17;;;2.90;;
483;SDS011;228;48.922;12.198;2023-02-25T06:50:06;3.30;;;2.53;;
483;SDS011;228;48.922;12.198;2023-02-25T06:52:33;2.37;;;1.83;;
483;SDS011;228;48.922;12.198;2023-02-25T06:54:59;2.33;;;1.50;;
483;SDS011;228;48.922;12.198;2023-02-25T06:57:25;4.33;;;2.37;;
483;SDS011;228;48.922;12.198;2023-02-25T06:59:51;3.40;;;2.20;;
483;SDS011;228;48.922;12.198;2023-02-25T07:02:17;3.80;;;2.33;;
483;SDS011;228;48.922;12.198;2023-02-25T07:04:44;2.87;;;1.93;;
483;SDS011;228;48.922;12.198;2023-02-25T07:07:10;4.00;;;1.83;;
483;SDS011;228;48.922;12.198;2023-02-25T07:09:36;2.23;;;1.63;;
483;SDS011;228;48.922;12.198;2023-02-25T07:12:02;2.37;;;1.87;;
483;SDS011;228;48.922;12.198;2023-02-25T07:14:29;2.23;;;1.33;;
483;SDS011;228;48.922;12.198;2023-02-25T07:16:55;4.80;;;2.00;;
483;SDS011;228;48.922;12.198;2023-02-25T07:19:20;3.57;;;1.63;;
483;SDS011;228;48.922;12.198;2023-02-25T07:21:46;2.63;;;1.70;;
483;SDS011;228;48.922;12.198;2023-02-25T07:24:13;8.07;;;1.60;;
483;SDS011;228;48.922;12.198;2023-02-25T07:26:41;5.70;;;1.90;;
483;SDS011;228;48.922;12.198;2023-02-25T07:29:07;4.57;;;1.67;;
483;SDS011;228;48.922;12.198;2023-02-25T07:31:33;2.40;;;1.77;;
483;SDS011;228;48.922;12.198;2023-02-25T07:33:59;3.90;;;1.73;;
483;SDS011;228;48.922;12.198;2023-02-25T07:36:29;1.80;;;1.70;;
483;SDS011;228;48.922;12.198;2023-02-25T07:38:57;5.13;;;1.87;;
483;SDS011;228;48.922;12.198;2023-02-25T07:41:26;3.37;;;1.70;;
483;SDS011;228;48.922;12.198;2023-02-25T07:43:56;3.97;;;1.90;;
483;SDS011;228;48.922;12.198;2023-02-25T07:46:23;2.93;;;1.53;;
483;SDS011;228;48.922;12.198;2023-02-25T07:48:50;7.23;;;2.00;;
483;SDS011;228;48.922;12.198;2023-02-25T07:51:18;4.13;;;1.70;;
483;SDS011;228;48.922;12.198;2023-02-25T07:53:47;4.30;;;1.67;;
483;SDS011;228;48.922;12.198;2023-02-25T07:56:14;3.63;;;1.90;;
483;SDS011;228;48.922;12.198;2023-02-25T07:58:42;4.50;;;1.87;;
483;SDS011;228;48.922;12.198;2023-02-25T08:01:15;1.93;;;1.70;;
483;SDS011;228;48.922;12.198;2023-02-25T08:03:44;6.47;;;1.80;;
483;SDS011;228;48.922;12.198;2023-02-25T08:06:12;3.30;;;1.50;;
483;SDS011;228;48.922;12.198;2023-02-25T08:08:39;2.90;;;1.40;;
483;SDS011;228;48.922;12.198;2023-02-25T08:11:06;2.70;;;1.50;;
483;SDS011;228;48.922;12.198;2023-02-25T08:13:37;5.10;;;1.67;;
483;SDS011;228;48.922;12.198;2023-02-25T08:16:04;6.07;;;2.10;;
483;SDS011;228;48.922;12.198;2023-02-25T08:18:36;5.03;;;1.80;;
483;SDS011;228;48.922;12.198;2023-02-25T08:21:02;2.03;;;1.80;;
483;SDS011;228;48.922;12.198;2023-02-25T08:23:29;3.87;;;1.60;;
483;SDS011;228;48.922;12.198;2023-02-25T08:25:56;6.70;;;1.67;;
483;SDS011;228;48.922;12.198;2023-02-25T08:28:23;2.47;;;1.30;;
483;SDS011;228;48.922;12.198;2023-02-25T08:30:53;2.63;;;1.87;;
483;SDS011;228;48.922;12.198;2023-02-25T08:33:19;1.73;;;1.63;;
483;SDS011;228;48.922;12.198;2023-02-25T08:35:45;2.80;;;2.10;;
483;SDS011;228;48.922;12.198;2023-02-25T08:38:11;2.83;;;1.40;;
483;SDS011;228;48.922;12.198;2023-02-25T08:40:38;4.77;;;1.93;;
483;SDS011;228;48.922;12.198;2023-02-25T08:43:05;4.27;;;1.80;;
483;SDS011;228;48.922;12.198;2023-02-25T08:45:31;2.00;;;1.40;;
483;SDS011;228;48.922;12.198;2023-02-25T08:47:58;1.90;;;1.70;;
483;SDS011;228;48.922;12.198;2023-02-25T08:50:25;4.90;;;1.77;;
483;SDS011;228;48.922;12.198;2023-02-25T08:52:52;3.47;;;1.70;;
483;SDS011;228;48.922;12.198;2023-02-25T08:55:18;2.10;;;1.53;;
483;SDS011;228;48.922;12.198;2023-02-25T08:57:44;4.70;;;1.47;;
483;SDS011;228;48.922;12.198;2023-02-25T09:00:11;3.43;;;1.53;;
483;SDS011;228;48.922;12.198;2023-02-25T09:02:41;3.53;;;1.93;;
483;SDS011;228;48.922;12.198;2023-02-25T09:05:09;4.63;;;1.90;;
483;SDS011;228;48.922;12.198;2023-02-25T09:07:35;3.97;;;2.93;;
483;SDS011;228;48.922;12.198;2023-02-25T09:10:02;1.60;;;1.27;;
483;SDS011;228;48.922;12.198;2023-02-25T09:12:34;4.63;;;1.50;;
483;SDS011;228;48.922;12.198;2023-02-25T09:15:00;2.37;;;1.73;;
483;SDS011;228;48.922;12.198;2023-02-25T09:17:27;3.40;;;2.10;;
483;SDS011;228;48.922;12.198;2023-02-25T09:19:53;4.77;;;2.20;;
483;SDS011;228;48.922;12.198;2023-02-25T09:22:19;3.10;;;1.67;;
483;SDS011;228;48.922;12.198;2023-02-25T09:24:45;3.43;;;1.50;;
483;SDS011;228;48.922;12.198;2023-02-25T09:27:11;3.97;;;1.90;;
483;SDS011;228;48.922;12.198;2023-02-25T09:29:37;3.67;;;1.80;;
483;SDS011;228;48.922;12.198;2023-02-25T09:32:04;1.80;;;1.60;;
483;SDS011;228;48.922;12.198;2023-02-25T09:34:32;1.30;;;1.10;;
483;SDS011;228;48.922;12.198;2023-02-25T09:37:07;3.43;;;1.60;;
483;SDS011;228;48.922;12.198;2023-02-25T09:39:33;3.00;;;2.00;;
483;SDS011;228;48.922;12.198;2023-02-25T09:42:01;2.90;;;1.63;;
483;SDS011;228;48.922;12.198;2023-02-25T09:44:38;4.00;;;2.00;;
483;SDS011;228;48.922;12.198;2023-02-25T09:49:59;4.13;;;1.50;;
483;SDS011;228;48.922;12.198;2023-02-25T09:52:34;3.80;;;1.70;;
483;SDS011;228;48.922;12.198;2023-02-25T09:57:41;3.07;;;1.73;;
483;SDS011;228;48.922;12.198;2023-02-25T10:00:27;2.50;;;1.60;;
483;SDS011;228;48.922;12.198;2023-02-25T10:03:09;4.40;;;2.00;;
483;SDS011;228;48.922;12.198;2023-02-25T10:08:31;6.40;;;1.70;;
483;SDS011;228;48.922;12.198;2023-02-25T10:11:42;1.97;;;1.60;;
483;SDS011;228;48.922;12.198;2023-02-25T10:17:27;4.00;;;1.83;;
483;SDS011;228;48.922;12.198;2023-02-25T10:20:31;3.63;;;2.00;;
483;SDS011;228;48.922;12.198;2023-02-25T10:25:55;3.60;;;1.80;;
483;SDS011;228;48.922;12.198;2023-02-25T10:28:31;1.30;;;1.20;;
483;SDS011;228;48.922;12.198;2023-02-25T10:33:34;1.23;;;1.10;;
483;SDS011;228;48.922;12.198;2023-02-25T10:38:41;1.70;;;1.40;;
483;SDS011;228;48.922;12.198;2023-02-25T10:41:13;6.33;;;2.50;;
483;SDS011;228;48.922;12.198;2023-02-25T10:43:39;6.63;;;1.73;;
483;SDS011;228;48.922;12.198;2023-02-25T10:46:28;4.50;;;1.40;;
483;SDS011;228;48.922;12.198;2023-02-25T10:49:11;1.93;;;1.17;;
483;SDS011;228;48.922;12.198;2023-02-25T10:52:20;1.40;;;1.10;;
483;SDS011;228;48.922;12.198;2023-02-25T10:54:46;1.17;;;1.07;;
483;SDS011;228;48.922;12.198;2023-02-25T10:57:15;2.57;;;1.40;;
483;SDS011;228;48.922;12.198;2023-02-25T11:00:00;2.40;;;1.10;;
483;SDS011;228;48.922;12.198;2023-02-25T11:02:41;1.83;;;1.47;;
483;SDS011;228;48.922;12.198;2023-02-25T11:07:55;2.37;;;1.23;;
483;SDS011;228;48.922;12.198;2023-02-25T11:10:21;2.27;;;1.23;;
483;SDS011;228;48.922;12.198;2023-02-25T11:12:48;2.50;;;1.40;;
483;SDS011;228;48.922;12.198;2023-02-25T11:17:50;1.27;;;1.17;;
483;SDS011;228;48.922;12.198;2023-02-25T11:20:25;3.63;;;1.57;;
483;SDS011;228;48.922;12.198;2023-02-25T11:22:54;3.70;;;1.80;;
483;SDS011;228;48.922;12.198;2023-02-25T11:25:42;1.73;;;1.30;;
483;SDS011;228;48.922;12.198;2023-02-25T11:28:19;6.17;;;1.90;;
483;SDS011;228;48.922;12.198;2023-02-25T11:30:49;1.47;;;1.30;;
483;SDS011;228;48.922;12.198;2023-02-25T11:33:25;4.00;;;1.60;;
483;SDS011;228;48.922;12.198;2023-02-25T11:35:57;1.50;;;1.40;;
483;SDS011;228;48.922;12.198;2023-02-25T11:38:26;7.50;;;2.03;;
483;SDS011;228;48.922;12.198;2023-02-25T11:40:58;3.23;;;1.30;;
483;SDS011;228;48.922;12.198;2023-02-25T11:43:35;3.53;;;1.50;;
483;SDS011;228;48.922;12.198;2023-02-25T11:46:10;2.43;;;1.53;;
483;SDS011;228;48.922;12.198;2023-02-25T11:48:47;3.07;;;1.57;;
483;SDS011;228;48.922;12.198;2023-02-25T11:54:38;2.97;;;1.83;;
483;SDS011;228;48.922;12.198;2023-02-25T12:27:19;4.00;;;2.50;;
483;SDS011;228;48.922;12.198;2023-02-25T12:39:33;10.70;;;4.93;;
483;SDS011;228;48.922;12.198;2023-02-25T12:42:41;4.77;;;3.10;;
483;SDS011;228;48.922;12.198;2023-02-25T12:57:45;2.97;;;1.50;;
483;SDS011;228;48.922;12.198;2023-02-25T13:06:26;1.50;;;1.40;;
483;SDS011;228;48.922;12.198;2023-02-25T13:21:21;2.83;;;1.97;;
483;SDS011;228;48.922;12.198;2023-02-25T13:24:22;3.37;;;1.87;;
483;SDS011;228;48.922;12.198;2023-02-25T13:30:20;1.30;;;1.20;;
483;SDS011;228;48.922;12.198;2023-02-25T13:42:59;2.73;;;1.27;;
483;SDS011;228;48.922;12.198;2023-02-25T13:48:57;2.70;;;1.13;;
483;SDS011;228;48.922;12.198;2023-02-25T14:06:41;1.17;;;0.60;;
483;SDS011;228;48.922;12.198;2023-02-25T14:18:54;0.60;;;0.50;;
483;SDS011;228;48.922;12.198;2023-02-25T14:30:48;2.17;;;2.00;;
483;SDS011;228;48.922;12.198;2023-02-25T14:36:46;1.40;;;1.20;;
483;SDS011;228;48.922;12.198;2023-02-25T14:39:24;1.83;;;1.47;;
483;SDS011;228;48.922;12.198;2023-02-25T14:44:54;2.10;;;1.90;;
483;SDS011;228;48.922;12.198;2023-02-25T14:47:33;4.60;;;2.20;;
483;SDS011;228;48.922;12.198;2023-02-25T15:18:04;1.63;;;1.10;;
483;SDS011;228;48.922;12.198;2023-02-25T15:20:41;1.27;;;1.17;;
483;SDS011;228;48.922;12.198;2023-02-25T15:29:12;0.40;;;0.40;;
483;SDS011;228;48.922;12.198;2023-02-25T15:37:36;0.60;;;0.60;;
483;SDS011;228;48.922;12.198;2023-02-25T15:43:29;1.17;;;0.50;;
483;SDS011;228;48.922;12.198;2023-02-25T15:48:31;1.07;;;0.73;;
483;SDS011;228;48.922;12.198;2023-02-25T15:51:01;0.70;;;0.70;;
483;SDS011;228;48.922;12.198;2023-02-25T15:53:36;0.97;;;0.90;;
483;SDS011;228;48.922;12.198;2023-02-25T16:14:14;1.33;;;1.10;;
483;SDS011;228;48.922;12.198;2023-02-25T16:17:09;1.10;;;1.00;;
483;SDS011;228;48.922;12.198;2023-02-25T16:19:55;0.80;;;0.80;;
483;SDS011;228;48.922;12.198;2023-02-25T16:22:36;0.80;;;0.70;;
483;SDS011;228;48.922;12.198;2023-02-25T16:25:10;0.73;;;0.73;;
483;SDS011;228;48.922;12.198;2023-02-25T16:33:58;1.77;;;1.10;;
483;SDS011;228;48.922;12.198;2023-02-25T16:36:34;0.90;;;0.90;;
483;SDS011;228;48.922;12.198;2023-02-25T16:39:16;3.47;;;1.87;;
483;SDS011;228;48.922;12.198;2023-02-25T16:41:46;1.77;;;1.33;;
483;SDS011;228;48.922;12.198;2023-02-25T16:44:16;1.90;;;1.50;;
483;SDS011;228;48.922;12.198;2023-02-25T16:46:48;5.60;;;2.50;;
483;SDS011;228;48.922;12.198;2023-02-25T16:49:22;4.50;;;2.67;;
483;SDS011;228;48.922;12.198;2023-02-25T16:51:55;3.33;;;2.33;;
483;SDS011;228;48.922;12.198;2023-02-25T16:54:33;8.83;;;4.87;;
483;SDS011;228;48.922;12.198;2023-02-25T16:57:03;5.23;;;3.43;;
483;SDS011;228;48.922;12.198;2023-02-25T16:59:34;2.20;;;1.67;;
483;SDS011;228;48.922;12.198;2023-02-25T17:02:18;3.53;;;2.00;;
483;SDS011;228;48.922;12.198;2023-02-25T17:07:17;3.40;;;2.40;;
483;SDS011;228;48.922;12.198;2023-02-25T17:09:53;5.73;;;3.50;;
483;SDS011;228;48.922;12.198;2023-02-25T17:12:41;2.60;;;1.80;;
483;SDS011;228;48.922;12.198;2023-02-25T17:15:24;1.70;;;1.60;;
483;SDS011;228;48.922;12.198;2023-02-25T17:20:45;1.57;;;1.37;;
483;SDS011;228;48.922;12.198;2023-02-25T17:23:13;1.67;;;1.57;;
483;SDS011;228;48.922;12.198;2023-02-25T17:25:41;1.63;;;1.50;;
483;SDS011;228;48.922;12.198;2023-02-25T17:28:18;3.30;;;1.60;;
483;SDS011;228;48.922;12.198;2023-02-25T17:30:48;2.50;;;1.50;;
483;SDS011;228;48.922;12.198;2023-02-25T17:33:19;2.67;;;1.50;;
483;SDS011;228;48.922;12.198;2023-02-25T17:35:56;1.80;;;1.70;;
483;SDS011;228;48.922;12.198;2023-02-25T17:38:27;2.07;;;1.57;;
483;SDS011;228;48.922;12.198;2023-02-25T17:40:54;2.23;;;1.73;;
483;SDS011;228;48.922;12.198;2023-02-25T17:43:22;1.60;;;1.50;;
483;SDS011;228;48.922;12.198;2023-02-25T17:45:58;1.90;;;1.40;;
483;SDS011;228;48.922;12.198;2023-02-25T17:48:29;1.47;;;1.37;;
483;SDS011;228;48.922;12.198;2023-02-25T17:50:58;1.83;;;1.40;;
483;SDS011;228;48.922;12.198;2023-02-25T17:58:43;5.87;;;1.73;;
483;SDS011;228;48.922;12.198;2023-02-25T18:01:21;3.43;;;2.03;;
483;SDS011;228;48.922;12.198;2023-02-25T18:03:56;1.77;;;1.60;;
483;SDS011;228;48.922;12.198;2023-02-25T18:06:38;1.97;;;1.60;;
483;SDS011;228;48.922;12.198;2023-02-25T18:09:26;3.03;;;1.80;;
483;SDS011;228;48.922;12.198;2023-02-25T18:12:03;1.80;;;1.43;;
483;SDS011;228;48.922;12.198;2023-02-25T18:14:42;2.13;;;1.63;;
483;SDS011;228;48.922;12.198;2023-02-25T18:19:58;7.53;;;3.07;;
483;SDS011;228;48.922;12.198;2023-02-25T18:30:46;2.73;;;1.80;;
483;SDS011;228;48.922;12.198;2023-02-25T18:33:14;4.00;;;2.87;;
483;SDS011;228;48.922;12.198;2023-02-25T18:35:42;8.53;;;5.27;;
483;SDS011;228;48.922;12.198;2023-02-25T18:38:23;6.23;;;3.50;;
483;SDS011;228;48.922;12.198;2023-02-25T18:40:52;5.53;;;3.90;;
483;SDS011;228;48.922;12.198;2023-02-25T18:43:19;4.77;;;3.10;;
483;SDS011;228;48.922;12.198;2023-02-25T18:45:48;4.40;;;3.10;;
483;SDS011;228;48.922;12.198;2023-02-25T18:48:14;6.63;;;3.60;;
483;SDS011;228;48.922;12.198;2023-02-25T18:50:40;5.70;;;3.80;;
483;SDS011;228;48.922;12.198;2023-02-25T18:53:11;6.20;;;2.60;;
483;SDS011;228;48.922;12.198;2023-02-25T18:55:50;2.37;;;2.10;;
483;SDS011;228;48.922;12.198;2023-02-25T18:58:18;4.00;;;2.50;;
483;SDS011;228;48.922;12.198;2023-02-25T19:00:52;5.87;;;2.87;;
483;SDS011;228;48.922;12.198;2023-02-25T19:03:28;2.57;;;1.90;;
483;SDS011;228;48.922;12.198;2023-02-25T19:05:57;1.83;;;1.57;;
483;SDS011;228;48.922;12.198;2023-02-25T19:08:24;1.93;;;1.33;;
483;SDS011;228;48.922;12.198;2023-02-25T19:10:51;1.40;;;1.30;;
483;SDS011;228;48.922;12.198;2023-02-25T19:13:27;4.30;;;1.40;;
483;SDS011;228;48.922;12.198;2023-02-25T19:16:04;3.17;;;1.77;;
483;SDS011;228;48.922;12.198;2023-02-25T19:18:32;1.97;;;1.40;;
483;SDS011;228;48.922;12.198;2023-02-25T19:20:58;1.37;;;1.20;;
483;SDS011;228;48.922;12.198;2023-02-25T19:23:24;1.70;;;1.13;;
483;SDS011;228;48.922;12.198;2023-02-25T19:25:54;1.63;;;1.30;;
483;SDS011;228;48.922;12.198;2023-02-25T19:28:23;1.63;;;1.10;;
483;SDS011;228;48.922;12.198;2023-02-25T19:30:49;2.40;;;0.97;;
483;SDS011;228;48.922;12.198;2023-02-25T19:33:15;0.77;;;0.77;;
483;SDS011;228;48.922;12.198;2023-02-25T19:35:41;2.20;;;1.17;;
483;SDS011;228;48.922;12.198;2023-02-25T19:38:11;1.53;;;1.00;;
483;SDS011;228;48.922;12.198;2023-02-25T19:40:42;1.97;;;1.60;;
483;SDS011;228;48.922;12.198;2023-02-25T19:43:10;1.30;;;1.20;;
483;SDS011;228;48.922;12.198;2023-02-25T19:45:38;1.43;;;1.33;;
483;SDS011;228;48.922;12.198;2023-02-25T19:48:05;1.20;;;1.10;;
483;SDS011;228;48.922;12.198;2023-02-25T19:50:31;1.17;;;1.00;;
483;SDS011;228;48.922;12.198;2023-02-25T19:52:59;1.33;;;1.10;;
483;SDS011;228;48.922;12.198;2023-02-25T19:55:27;1.10;;;1.00;;
483;SDS011;228;48.922;12.198;2023-02-25T19:57:54;0.70;;;0.70;;
483;SDS011;228;48.922;12.198;2023-02-25T20:00:21;1.20;;;1.10;;
483;SDS011;228;48.922;12.198;2023-02-25T20:02:49;1.20;;;1.07;;
483;SDS011;228;48.922;12.198;2023-02-25T20:05:18;1.20;;;1.10;;
483;SDS011;228;48.922;12.198;2023-02-25T20:07:45;2.33;;;1.10;;
483;SDS011;228;48.922;12.198;2023-02-25T20:10:12;1.20;;;1.10;;
483;SDS011;228;48.922;12.198;2023-02-25T20:12:40;1.37;;;1.13;;
483;SDS011;228;48.922;12.198;2023-02-25T20:15:08;1.83;;;1.10;;
483;SDS011;228;48.922;12.198;2023-02-25T20:17:39;1.60;;;1.50;;
483;SDS011;228;48.922;12.198;2023-02-25T20:20:09;0.80;;;0.80;;
483;SDS011;228;48.922;12.198;2023-02-25T20:22:37;1.20;;;1.10;;
483;SDS011;228;48.922;12.198;2023-02-25T20:25:05;1.10;;;1.00;;
483;SDS011;228;48.922;12.198;2023-02-25T20:27:32;1.83;;;1.07;;
483;SDS011;228;48.922;12.198;2023-02-25T20:30:01;1.20;;;0.80;;